Weather at Frankfurt am Main Airport

Public forecast

Using degrees Celsius for public forecast. Weather courtesy of forecast.io.

Current aviation weather report (METAR) for Frankfurt am Main Airport

Retrieved 2021/04/11 09:50 UTC (11 minutes ago):

EDDF 110950Z 19008KT 160V230 9999 FEW032 SCT047 14/07 Q1008 NOSIG

Aviation forecast (TAF) for Frankfurt am Main Airport

Retrieved 2021/04/11 06:27 UTC (4 hours ago):

TAF TAF EDDF 110500Z 1106/1212 20006KT 9999 BKN040 PROB30 TEMPO 1111/1115 4000 SHRA BKN025CB BECMG 1112/1115 32012KT TEMPO 1115/1121 4000 RA BKN012 TEMPO 1121/1201 4000 -RASN BR BKN008 BECMG 1200/1202 31007KT TEMPO 1201/1206 4000 BR BKN006